sensor_id;sensor_type;location;lat;lon;timestamp;temperature;humidity
10472;DHT22;5283;48.876;8.962;2023-08-06T00:00:53;12.20;99.90
10472;DHT22;5283;48.876;8.962;2023-08-06T00:03:20;12.20;99.90
10472;DHT22;5283;48.876;8.962;2023-08-06T00:05:47;12.10;99.90
10472;DHT22;5283;48.876;8.962;2023-08-06T00:08:13;11.90;99.90
10472;DHT22;5283;48.876;8.962;2023-08-06T00:10:40;11.90;99.90
10472;DHT22;5283;48.876;8.962;2023-08-06T00:13:08;11.70;99.90
10472;DHT22;5283;48.876;8.962;2023-08-06T00:15:35;11.70;99.90
10472;DHT22;5283;48.876;8.962;2023-08-06T00:18:01;11.70;99.90
10472;DHT22;5283;48.876;8.962;2023-08-06T00:20:28;11.70;99.90
10472;DHT22;5283;48.876;8.962;2023-08-06T00:22:55;11.80;99.90
10472;DHT22;5283;48.876;8.962;2023-08-06T00:25:21;11.70;99.90
10472;DHT22;5283;48.876;8.962;2023-08-06T00:27:48;11.60;99.90
10472;DHT22;5283;48.876;8.962;2023-08-06T00:30:15;11.50;99.90
10472;DHT22;5283;48.876;8.962;2023-08-06T00:32:41;11.40;99.90
10472;DHT22;5283;48.876;8.962;2023-08-06T00:35:08;11.30;99.90
10472;DHT22;5283;48.876;8.962;2023-08-06T00:37:35;11.30;99.90
10472;DHT22;5283;48.876;8.962;2023-08-06T00:40:02;11.20;99.90
10472;DHT22;5283;48.876;8.962;2023-08-06T00:42:29;11.30;99.90
10472;DHT22;5283;48.876;8.962;2023-08-06T00:44:55;11.40;99.90
10472;DHT22;5283;48.876;8.962;2023-08-06T00:47:22;11.40;99.90
10472;DHT22;5283;48.876;8.962;2023-08-06T00:49:49;11.50;99.90
10472;DHT22;5283;48.876;8.962;2023-08-06T00:52:16;11.60;99.90
10472;DHT22;5283;48.876;8.962;2023-08-06T00:54:43;11.50;99.90
10472;DHT22;5283;48.876;8.962;2023-08-06T00:57:10;11.50;99.90
10472;DHT22;5283;48.876;8.962;2023-08-06T00:59:37;11.40;99.90
10472;DHT22;5283;48.876;8.962;2023-08-06T01:02:05;11.40;99.90
10472;DHT22;5283;48.876;8.962;2023-08-06T01:04:31;11.30;99.90
10472;DHT22;5283;48.876;8.962;2023-08-06T01:07:10;11.20;99.90
10472;DHT22;5283;48.876;8.962;2023-08-06T01:10:09;11.30;99.90
10472;DHT22;5283;48.876;8.962;2023-08-06T01:12:55;11.30;99.90
10472;DHT22;5283;48.876;8.962;2023-08-06T01:15:41;11.30;99.90
10472;DHT22;5283;48.876;8.962;2023-08-06T01:18:07;11.40;99.90
10472;DHT22;5283;48.876;8.962;2023-08-06T01:20:35;11.40;99.90
10472;DHT22;5283;48.876;8.962;2023-08-06T01:23:01;11.40;99.90
10472;DHT22;5283;48.876;8.962;2023-08-06T01:25:34;11.30;99.90
10472;DHT22;5283;48.876;8.962;2023-08-06T01:28:32;11.20;99.90
10472;DHT22;5283;48.876;8.962;2023-08-06T01:31:02;11.10;99.90
10472;DHT22;5283;48.876;8.962;2023-08-06T01:33:32;11.00;99.90
10472;DHT22;5283;48.876;8.962;2023-08-06T01:36:01;11.00;99.90
10472;DHT22;5283;48.876;8.962;2023-08-06T01:38:28;11.00;99.90
10472;DHT22;5283;48.876;8.962;2023-08-06T01:40:55;11.00;99.90
10472;DHT22;5283;48.876;8.962;2023-08-06T01:43:22;11.00;99.90
10472;DHT22;5283;48.876;8.962;2023-08-06T01:45:49;11.10;99.90
10472;DHT22;5283;48.876;8.962;2023-08-06T01:48:15;11.20;99.90
10472;DHT22;5283;48.876;8.962;2023-08-06T01:50:42;11.30;99.90
10472;DHT22;5283;48.876;8.962;2023-08-06T01:53:09;11.30;99.90
10472;DHT22;5283;48.876;8.962;2023-08-06T01:55:35;11.40;99.90
10472;DHT22;5283;48.876;8.962;2023-08-06T01:58:02;11.30;99.90
10472;DHT22;5283;48.876;8.962;2023-08-06T02:00:29;11.40;99.90
10472;DHT22;5283;48.876;8.962;2023-08-06T02:02:55;11.40;99.90
10472;DHT22;5283;48.876;8.962;2023-08-06T02:05:22;11.40;99.90
10472;DHT22;5283;48.876;8.962;2023-08-06T02:07:49;11.40;99.90
10472;DHT22;5283;48.876;8.962;2023-08-06T02:10:15;11.40;99.90
10472;DHT22;5283;48.876;8.962;2023-08-06T02:12:42;11.50;99.90
10472;DHT22;5283;48.876;8.962;2023-08-06T02:15:09;11.50;99.90
10472;DHT22;5283;48.876;8.962;2023-08-06T02:17:35;11.60;99.90
10472;DHT22;5283;48.876;8.962;2023-08-06T02:20:02;11.70;99.90
10472;DHT22;5283;48.876;8.962;2023-08-06T02:22:29;11.70;99.90
10472;DHT22;5283;48.876;8.962;2023-08-06T02:24:56;11.60;99.90
10472;DHT22;5283;48.876;8.962;2023-08-06T02:27:22;11.60;99.90
10472;DHT22;5283;48.876;8.962;2023-08-06T02:29:49;11.60;99.90
10472;DHT22;5283;48.876;8.962;2023-08-06T02:32:16;11.50;99.90
10472;DHT22;5283;48.876;8.962;2023-08-06T02:34:42;11.40;99.90
10472;DHT22;5283;48.876;8.962;2023-08-06T02:37:09;11.50;99.90
10472;DHT22;5283;48.876;8.962;2023-08-06T02:39:36;11.50;99.90
10472;DHT22;5283;48.876;8.962;2023-08-06T02:42:08;11.70;99.90
10472;DHT22;5283;48.876;8.962;2023-08-06T02:44:35;11.70;99.90
10472;DHT22;5283;48.876;8.962;2023-08-06T02:47:02;11.80;99.90
10472;DHT22;5283;48.876;8.962;2023-08-06T02:49:28;11.80;99.90
10472;DHT22;5283;48.876;8.962;2023-08-06T02:51:55;11.80;99.90
10472;DHT22;5283;48.876;8.962;2023-08-06T02:54:22;11.70;99.90
10472;DHT22;5283;48.876;8.962;2023-08-06T02:56:48;11.70;99.90
10472;DHT22;5283;48.876;8.962;2023-08-06T02:59:15;11.70;99.90
10472;DHT22;5283;48.876;8.962;2023-08-06T03:01:42;11.70;99.90
10472;DHT22;5283;48.876;8.962;2023-08-06T03:04:08;11.80;99.90
10472;DHT22;5283;48.876;8.962;2023-08-06T03:06:35;11.90;99.90
10472;DHT22;5283;48.876;8.962;2023-08-06T03:09:02;12.00;99.90
10472;DHT22;5283;48.876;8.962;2023-08-06T03:11:28;12.10;99.90
10472;DHT22;5283;48.876;8.962;2023-08-06T03:13:55;12.10;99.90
10472;DHT22;5283;48.876;8.962;2023-08-06T03:16:22;12.10;99.90
10472;DHT22;5283;48.876;8.962;2023-08-06T03:18:49;12.10;99.90
10472;DHT22;5283;48.876;8.962;2023-08-06T03:21:15;12.20;99.90
10472;DHT22;5283;48.876;8.962;2023-08-06T03:23:42;12.20;99.90
10472;DHT22;5283;48.876;8.962;2023-08-06T03:26:08;12.20;99.90
10472;DHT22;5283;48.876;8.962;2023-08-06T03:28:35;12.20;99.90
10472;DHT22;5283;48.876;8.962;2023-08-06T03:31:03;12.30;99.90
10472;DHT22;5283;48.876;8.962;2023-08-06T03:33:30;12.20;99.90
10472;DHT22;5283;48.876;8.962;2023-08-06T03:35:56;12.30;99.90
10472;DHT22;5283;48.876;8.962;2023-08-06T03:38:23;12.30;99.90
10472;DHT22;5283;48.876;8.962;2023-08-06T03:40:50;12.30;99.90
10472;DHT22;5283;48.876;8.962;2023-08-06T03:43:17;12.40;99.90
10472;DHT22;5283;48.876;8.962;2023-08-06T03:45:44;12.50;99.90
10472;DHT22;5283;48.876;8.962;2023-08-06T03:48:10;12.50;99.90
10472;DHT22;5283;48.876;8.962;2023-08-06T03:50:37;12.50;99.90
10472;DHT22;5283;48.876;8.962;2023-08-06T03:53:04;12.60;99.90
10472;DHT22;5283;48.876;8.962;2023-08-06T03:55:31;12.70;99.90
10472;DHT22;5283;48.876;8.962;2023-08-06T03:57:57;12.80;99.90
10472;DHT22;5283;48.876;8.962;2023-08-06T04:00:24;12.80;99.90
10472;DHT22;5283;48.876;8.962;2023-08-06T04:02:51;12.80;99.90
10472;DHT22;5283;48.876;8.962;2023-08-06T04:05:18;12.80;99.90
10472;DHT22;5283;48.876;8.962;2023-08-06T04:07:44;12.80;99.90
10472;DHT22;5283;48.876;8.962;2023-08-06T04:10:11;12.80;99.90
10472;DHT22;5283;48.876;8.962;2023-08-06T04:12:38;12.80;99.90
10472;DHT22;5283;48.876;8.962;2023-08-06T04:15:06;12.80;99.90
10472;DHT22;5283;48.876;8.962;2023-08-06T04:17:33;12.80;99.90
10472;DHT22;5283;48.876;8.962;2023-08-06T04:19:59;12.80;99.90
10472;DHT22;5283;48.876;8.962;2023-08-06T04:22:27;12.80;99.90
10472;DHT22;5283;48.876;8.962;2023-08-06T04:24:53;12.80;99.90
10472;DHT22;5283;48.876;8.962;2023-08-06T04:27:20;12.70;99.90
10472;DHT22;5283;48.876;8.962;2023-08-06T04:29:47;12.70;99.90
10472;DHT22;5283;48.876;8.962;2023-08-06T04:32:13;12.60;99.90
10472;DHT22;5283;48.876;8.962;2023-08-06T04:34:40;12.60;99.90
10472;DHT22;5283;48.876;8.962;2023-08-06T04:37:07;12.60;99.90
10472;DHT22;5283;48.876;8.962;2023-08-06T04:39:34;12.60;99.90
10472;DHT22;5283;48.876;8.962;2023-08-06T04:42:00;12.60;99.90
10472;DHT22;5283;48.876;8.962;2023-08-06T04:44:27;12.60;99.90
10472;DHT22;5283;48.876;8.962;2023-08-06T04:46:54;12.50;99.90
10472;DHT22;5283;48.876;8.962;2023-08-06T04:49:20;12.40;99.90
10472;DHT22;5283;48.876;8.962;2023-08-06T04:51:47;12.40;99.90
10472;DHT22;5283;48.876;8.962;2023-08-06T04:54:14;12.50;99.90
10472;DHT22;5283;48.876;8.962;2023-08-06T04:56:41;12.50;99.90
10472;DHT22;5283;48.876;8.962;2023-08-06T04:59:08;12.50;99.90
10472;DHT22;5283;48.876;8.962;2023-08-06T05:01:35;12.60;99.90
10472;DHT22;5283;48.876;8.962;2023-08-06T05:04:01;12.80;99.90
10472;DHT22;5283;48.876;8.962;2023-08-06T05:06:28;13.30;99.90
10472;DHT22;5283;48.876;8.962;2023-08-06T05:08:55;14.30;99.90
10472;DHT22;5283;48.876;8.962;2023-08-06T05:11:21;15.00;99.90
10472;DHT22;5283;48.876;8.962;2023-08-06T05:13:48;15.60;99.90
10472;DHT22;5283;48.876;8.962;2023-08-06T05:16:15;16.00;99.90
10472;DHT22;5283;48.876;8.962;2023-08-06T05:18:42;15.70;99.90
10472;DHT22;5283;48.876;8.962;2023-08-06T05:21:08;15.40;99.90
10472;DHT22;5283;48.876;8.962;2023-08-06T05:23:35;14.80;99.90
10472;DHT22;5283;48.876;8.962;2023-08-06T05:26:02;14.70;99.90
10472;DHT22;5283;48.876;8.962;2023-08-06T05:28:28;14.50;99.90
10472;DHT22;5283;48.876;8.962;2023-08-06T05:30:55;14.50;99.90
10472;DHT22;5283;48.876;8.962;2023-08-06T05:33:22;14.40;99.90
10472;DHT22;5283;48.876;8.962;2023-08-06T05:35:49;14.60;99.90
10472;DHT22;5283;48.876;8.962;2023-08-06T05:38:16;14.50;99.90
10472;DHT22;5283;48.876;8.962;2023-08-06T05:40:44;14.40;99.90
10472;DHT22;5283;48.876;8.962;2023-08-06T05:43:11;14.30;99.90
10472;DHT22;5283;48.876;8.962;2023-08-06T05:45:37;14.40;99.90
10472;DHT22;5283;48.876;8.962;2023-08-06T05:48:04;14.60;99.90
10472;DHT22;5283;48.876;8.962;2023-08-06T05:50:31;14.50;99.90
10472;DHT22;5283;48.876;8.962;2023-08-06T05:52:57;14.40;99.90
10472;DHT22;5283;48.876;8.962;2023-08-06T05:55:26;14.60;99.90
10472;DHT22;5283;48.876;8.962;2023-08-06T05:57:52;14.50;99.90
10472;DHT22;5283;48.876;8.962;2023-08-06T06:00:20;14.50;99.90
10472;DHT22;5283;48.876;8.962;2023-08-06T06:02:46;14.40;99.90
10472;DHT22;5283;48.876;8.962;2023-08-06T06:05:13;14.40;99.90
10472;DHT22;5283;48.876;8.962;2023-08-06T06:07:40;14.40;99.90
10472;DHT22;5283;48.876;8.962;2023-08-06T06:10:07;14.40;99.90
10472;DHT22;5283;48.876;8.962;2023-08-06T06:12:34;14.40;99.90
10472;DHT22;5283;48.876;8.962;2023-08-06T06:15:00;14.40;99.90
10472;DHT22;5283;48.876;8.962;2023-08-06T06:17:28;14.50;99.90
10472;DHT22;5283;48.876;8.962;2023-08-06T06:19:55;14.40;99.90
10472;DHT22;5283;48.876;8.962;2023-08-06T06:22:22;14.40;99.90
10472;DHT22;5283;48.876;8.962;2023-08-06T06:24:49;14.40;99.90
10472;DHT22;5283;48.876;8.962;2023-08-06T06:27:15;14.40;99.90
10472;DHT22;5283;48.876;8.962;2023-08-06T06:29:42;14.40;99.90
10472;DHT22;5283;48.876;8.962;2023-08-06T06:32:08;14.40;99.90
10472;DHT22;5283;48.876;8.962;2023-08-06T06:34:35;14.50;99.90
10472;DHT22;5283;48.876;8.962;2023-08-06T06:37:02;14.50;99.90
10472;DHT22;5283;48.876;8.962;2023-08-06T06:39:29;14.50;99.90
10472;DHT22;5283;48.876;8.962;2023-08-06T06:41:55;14.40;99.90
10472;DHT22;5283;48.876;8.962;2023-08-06T06:44:22;14.50;99.90
10472;DHT22;5283;48.876;8.962;2023-08-06T06:46:49;14.60;99.90
10472;DHT22;5283;48.876;8.962;2023-08-06T06:49:16;14.60;99.90
10472;DHT22;5283;48.876;8.962;2023-08-06T06:51:42;14.60;99.90
10472;DHT22;5283;48.876;8.962;2023-08-06T06:54:09;14.70;99.90
10472;DHT22;5283;48.876;8.962;2023-08-06T06:56:36;14.70;99.90
10472;DHT22;5283;48.876;8.962;2023-08-06T06:59:02;14.70;99.90
10472;DHT22;5283;48.876;8.962;2023-08-06T07:01:29;14.70;99.90
10472;DHT22;5283;48.876;8.962;2023-08-06T07:03:56;14.70;99.90
10472;DHT22;5283;48.876;8.962;2023-08-06T07:06:23;14.70;99.90
10472;DHT22;5283;48.876;8.962;2023-08-06T07:08:50;14.80;99.90
10472;DHT22;5283;48.876;8.962;2023-08-06T07:11:17;14.90;99.90
10472;DHT22;5283;48.876;8.962;2023-08-06T07:13:43;14.90;99.90
10472;DHT22;5283;48.876;8.962;2023-08-06T07:16:10;15.00;99.90
10472;DHT22;5283;48.876;8.962;2023-08-06T07:18:37;15.00;99.90
10472;DHT22;5283;48.876;8.962;2023-08-06T07:21:04;15.10;99.90
10472;DHT22;5283;48.876;8.962;2023-08-06T07:23:30;15.00;99.90
10472;DHT22;5283;48.876;8.962;2023-08-06T07:25:57;15.00;99.90
10472;DHT22;5283;48.876;8.962;2023-08-06T07:28:24;15.10;99.90
10472;DHT22;5283;48.876;8.962;2023-08-06T07:30:51;15.30;99.90
10472;DHT22;5283;48.876;8.962;2023-08-06T07:33:18;15.40;99.90
10472;DHT22;5283;48.876;8.962;2023-08-06T07:35:44;15.60;99.90
10472;DHT22;5283;48.876;8.962;2023-08-06T07:38:11;16.00;99.90
10472;DHT22;5283;48.876;8.962;2023-08-06T07:40:38;16.20;99.90
10472;DHT22;5283;48.876;8.962;2023-08-06T07:43:05;16.20;99.90
10472;DHT22;5283;48.876;8.962;2023-08-06T07:45:33;16.20;99.90
10472;DHT22;5283;48.876;8.962;2023-08-06T07:48:00;16.20;99.90
10472;DHT22;5283;48.876;8.962;2023-08-06T07:50:27;16.30;99.90
10472;DHT22;5283;48.876;8.962;2023-08-06T07:52:54;16.30;99.90
10472;DHT22;5283;48.876;8.962;2023-08-06T07:55:20;16.30;99.90
10472;DHT22;5283;48.876;8.962;2023-08-06T07:57:47;16.20;99.90
10472;DHT22;5283;48.876;8.962;2023-08-06T08:00:14;16.30;99.90
10472;DHT22;5283;48.876;8.962;2023-08-06T08:02:40;16.60;99.90
10472;DHT22;5283;48.876;8.962;2023-08-06T08:05:07;16.70;99.90
10472;DHT22;5283;48.876;8.962;2023-08-06T08:07:34;17.10;99.90
10472;DHT22;5283;48.876;8.962;2023-08-06T08:10:01;17.20;99.90
10472;DHT22;5283;48.876;8.962;2023-08-06T08:12:28;17.40;99.90
10472;DHT22;5283;48.876;8.962;2023-08-06T08:14:54;17.60;99.90
10472;DHT22;5283;48.876;8.962;2023-08-06T08:17:21;17.50;99.90
10472;DHT22;5283;48.876;8.962;2023-08-06T08:19:48;17.90;99.90
10472;DHT22;5283;48.876;8.962;2023-08-06T08:22:15;17.80;99.90
10472;DHT22;5283;48.876;8.962;2023-08-06T08:24:41;17.80;99.90
10472;DHT22;5283;48.876;8.962;2023-08-06T08:27:08;18.00;99.90
10472;DHT22;5283;48.876;8.962;2023-08-06T08:29:35;18.10;99.90
10472;DHT22;5283;48.876;8.962;2023-08-06T08:32:02;18.50;99.90
10472;DHT22;5283;48.876;8.962;2023-08-06T08:34:28;18.20;99.90
10472;DHT22;5283;48.876;8.962;2023-08-06T08:36:55;18.50;99.90
10472;DHT22;5283;48.876;8.962;2023-08-06T08:39:22;18.00;99.90
10472;DHT22;5283;48.876;8.962;2023-08-06T08:41:49;17.20;99.90
10472;DHT22;5283;48.876;8.962;2023-08-06T08:44:16;17.30;99.90
10472;DHT22;5283;48.876;8.962;2023-08-06T08:46:44;17.20;99.90
10472;DHT22;5283;48.876;8.962;2023-08-06T08:49:11;16.50;99.90
10472;DHT22;5283;48.876;8.962;2023-08-06T08:51:38;16.50;99.90
10472;DHT22;5283;48.876;8.962;2023-08-06T08:54:07;16.40;99.90
10472;DHT22;5283;48.876;8.962;2023-08-06T08:56:34;16.40;99.90
10472;DHT22;5283;48.876;8.962;2023-08-06T08:59:01;16.10;99.90
10472;DHT22;5283;48.876;8.962;2023-08-06T09:01:28;16.30;99.90
10472;DHT22;5283;48.876;8.962;2023-08-06T09:03:57;16.60;99.90
10472;DHT22;5283;48.876;8.962;2023-08-06T09:06:25;16.60;99.90
10472;DHT22;5283;48.876;8.962;2023-08-06T09:09:09;16.80;99.90
10472;DHT22;5283;48.876;8.962;2023-08-06T09:11:48;16.80;99.90
10472;DHT22;5283;48.876;8.962;2023-08-06T09:14:16;16.60;99.90
10472;DHT22;5283;48.876;8.962;2023-08-06T09:16:43;16.50;99.90
10472;DHT22;5283;48.876;8.962;2023-08-06T09:19:13;16.60;99.90
10472;DHT22;5283;48.876;8.962;2023-08-06T09:21:42;16.60;99.90
10472;DHT22;5283;48.876;8.962;2023-08-06T09:24:11;16.80;99.90
10472;DHT22;5283;48.876;8.962;2023-08-06T09:26:44;16.40;99.90
10472;DHT22;5283;48.876;8.962;2023-08-06T09:29:11;16.10;99.90
10472;DHT22;5283;48.876;8.962;2023-08-06T09:31:51;16.00;99.90
10472;DHT22;5283;48.876;8.962;2023-08-06T09:34:20;16.10;99.90
10472;DHT22;5283;48.876;8.962;2023-08-06T09:36:50;16.10;99.90
10472;DHT22;5283;48.876;8.962;2023-08-06T09:39:30;16.00;99.90
10472;DHT22;5283;48.876;8.962;2023-08-06T09:41:59;15.90;99.90
10472;DHT22;5283;48.876;8.962;2023-08-06T09:44:27;15.70;99.90
10472;DHT22;5283;48.876;8.962;2023-08-06T09:46:56;15.70;99.90
10472;DHT22;5283;48.876;8.962;2023-08-06T09:49:27;15.80;99.90
10472;DHT22;5283;48.876;8.962;2023-08-06T09:51:54;15.90;99.90
10472;DHT22;5283;48.876;8.962;2023-08-06T09:54:25;16.20;99.90
10472;DHT22;5283;48.876;8.962;2023-08-06T09:56:54;16.40;99.90
10472;DHT22;5283;48.876;8.962;2023-08-06T09:59:22;16.90;99.90
10472;DHT22;5283;48.876;8.962;2023-08-06T10:01:49;16.90;99.90
10472;DHT22;5283;48.876;8.962;2023-08-06T10:04:16;17.30;99.90
10472;DHT22;5283;48.876;8.962;2023-08-06T10:06:48;17.30;99.90
10472;DHT22;5283;48.876;8.962;2023-08-06T10:09:15;17.20;99.90
10472;DHT22;5283;48.876;8.962;2023-08-06T10:11:42;17.30;99.90
10472;DHT22;5283;48.876;8.962;2023-08-06T10:14:13;17.30;99.90
10472;DHT22;5283;48.876;8.962;2023-08-06T10:16:42;17.40;99.90
10472;DHT22;5283;48.876;8.962;2023-08-06T10:19:10;17.20;99.90
10472;DHT22;5283;48.876;8.962;2023-08-06T10:21:38;17.20;99.90
10472;DHT22;5283;48.876;8.962;2023-08-06T10:24:08;17.00;99.90
10472;DHT22;5283;48.876;8.962;2023-08-06T10:26:38;17.40;99.90
10472;DHT22;5283;48.876;8.962;2023-08-06T10:29:35;17.20;99.90
10472;DHT22;5283;48.876;8.962;2023-08-06T10:32:05;16.90;99.90
10472;DHT22;5283;48.876;8.962;2023-08-06T10:34:54;16.80;99.90
10472;DHT22;5283;48.876;8.962;2023-08-06T10:37:23;16.80;99.90
10472;DHT22;5283;48.876;8.962;2023-08-06T10:39:51;16.30;99.90
10472;DHT22;5283;48.876;8.962;2023-08-06T10:42:36;16.30;99.90
10472;DHT22;5283;48.876;8.962;2023-08-06T10:45:17;16.30;99.90
10472;DHT22;5283;48.876;8.962;2023-08-06T10:47:45;15.80;99.90
10472;DHT22;5283;48.876;8.962;2023-08-06T10:50:16;15.50;99.90
10472;DHT22;5283;48.876;8.962;2023-08-06T10:52:45;15.50;99.90
10472;DHT22;5283;48.876;8.962;2023-08-06T10:55:12;15.30;99.90
10472;DHT22;5283;48.876;8.962;2023-08-06T10:57:39;15.20;99.90
10472;DHT22;5283;48.876;8.962;2023-08-06T11:00:07;15.30;99.90
10472;DHT22;5283;48.876;8.962;2023-08-06T11:02:41;15.30;99.90
10472;DHT22;5283;48.876;8.962;2023-08-06T11:05:08;15.70;99.90
10472;DHT22;5283;48.876;8.962;2023-08-06T11:07:36;16.00;99.90
10472;DHT22;5283;48.876;8.962;2023-08-06T11:10:09;16.00;99.90
10472;DHT22;5283;48.876;8.962;2023-08-06T11:12:36;15.60;99.90
10472;DHT22;5283;48.876;8.962;2023-08-06T11:15:03;15.40;99.90
10472;DHT22;5283;48.876;8.962;2023-08-06T11:17:32;15.70;99.90
10472;DHT22;5283;48.876;8.962;2023-08-06T11:20:00;16.20;99.90
10472;DHT22;5283;48.876;8.962;2023-08-06T11:22:27;16.50;99.90
10472;DHT22;5283;48.876;8.962;2023-08-06T11:24:54;16.30;99.90
10472;DHT22;5283;48.876;8.962;2023-08-06T11:27:21;16.20;99.90
10472;DHT22;5283;48.876;8.962;2023-08-06T11:29:48;15.80;99.90
10472;DHT22;5283;48.876;8.962;2023-08-06T11:32:14;15.80;99.90
10472;DHT22;5283;48.876;8.962;2023-08-06T11:34:43;15.60;99.90
10472;DHT22;5283;48.876;8.962;2023-08-06T11:37:10;15.40;99.90
10472;DHT22;5283;48.876;8.962;2023-08-06T11:39:38;15.00;99.90
10472;DHT22;5283;48.876;8.962;2023-08-06T11:42:06;14.90;99.90
10472;DHT22;5283;48.876;8.962;2023-08-06T11:44:35;14.70;99.90
10472;DHT22;5283;48.876;8.962;2023-08-06T11:47:03;14.60;99.90
10472;DHT22;5283;48.876;8.962;2023-08-06T11:49:46;14.40;99.90
10472;DHT22;5283;48.876;8.962;2023-08-06T11:54:42;14.10;99.90
10472;DHT22;5283;48.876;8.962;2023-08-06T11:57:09;14.20;99.90
10472;DHT22;5283;48.876;8.962;2023-08-06T11:59:38;14.10;99.90
10472;DHT22;5283;48.876;8.962;2023-08-06T12:02:08;14.10;99.90
10472;DHT22;5283;48.876;8.962;2023-08-06T12:05:02;14.20;99.90
10472;DHT22;5283;48.876;8.962;2023-08-06T12:07:37;14.20;99.90
10472;DHT22;5283;48.876;8.962;2023-08-06T12:10:05;14.30;99.90
10472;DHT22;5283;48.876;8.962;2023-08-06T12:12:31;14.30;99.90
10472;DHT22;5283;48.876;8.962;2023-08-06T12:14:58;14.40;99.90
10472;DHT22;5283;48.876;8.962;2023-08-06T12:17:25;14.50;99.90
10472;DHT22;5283;48.876;8.962;2023-08-06T12:19:52;14.70;99.90
10472;DHT22;5283;48.876;8.962;2023-08-06T12:22:19;14.50;99.90
10472;DHT22;5283;48.876;8.962;2023-08-06T12:24:47;14.70;99.90
10472;DHT22;5283;48.876;8.962;2023-08-06T12:27:14;14.60;99.90
10472;DHT22;5283;48.876;8.962;2023-08-06T12:29:47;14.70;99.90
10472;DHT22;5283;48.876;8.962;2023-08-06T12:32:14;15.00;99.90
10472;DHT22;5283;48.876;8.962;2023-08-06T12:34:42;15.70;99.90
10472;DHT22;5283;48.876;8.962;2023-08-06T12:37:16;16.10;99.90
10472;DHT22;5283;48.876;8.962;2023-08-06T12:39:43;16.20;99.90
10472;DHT22;5283;48.876;8.962;2023-08-06T12:42:10;15.90;99.90
10472;DHT22;5283;48.876;8.962;2023-08-06T12:44:37;16.00;99.90
10472;DHT22;5283;48.876;8.962;2023-08-06T12:47:03;16.20;99.90
10472;DHT22;5283;48.876;8.962;2023-08-06T12:49:30;16.30;99.90
10472;DHT22;5283;48.876;8.962;2023-08-06T12:51:58;16.60;99.90
10472;DHT22;5283;48.876;8.962;2023-08-06T12:54:26;16.70;99.90
10472;DHT22;5283;48.876;8.962;2023-08-06T12:56:54;16.90;99.90
10472;DHT22;5283;48.876;8.962;2023-08-06T12:59:21;16.70;99.90
10472;DHT22;5283;48.876;8.962;2023-08-06T13:01:47;16.60;99.90
10472;DHT22;5283;48.876;8.962;2023-08-06T13:04:14;16.40;99.90
10472;DHT22;5283;48.876;8.962;2023-08-06T13:06:46;16.30;99.90
10472;DHT22;5283;48.876;8.962;2023-08-06T13:09:13;16.30;99.90
10472;DHT22;5283;48.876;8.962;2023-08-06T13:11:40;16.20;99.90
10472;DHT22;5283;48.876;8.962;2023-08-06T13:14:08;16.20;99.90
10472;DHT22;5283;48.876;8.962;2023-08-06T13:16:36;16.20;99.90
10472;DHT22;5283;48.876;8.962;2023-08-06T13:19:04;16.30;99.90
10472;DHT22;5283;48.876;8.962;2023-08-06T13:24:08;16.10;99.90
10472;DHT22;5283;48.876;8.962;2023-08-06T13:26:35;16.00;99.90
10472;DHT22;5283;48.876;8.962;2023-08-06T13:29:02;15.90;99.90
10472;DHT22;5283;48.876;8.962;2023-08-06T13:31:29;15.60;99.90
10472;DHT22;5283;48.876;8.962;2023-08-06T13:33:56;15.00;99.90
10472;DHT22;5283;48.876;8.962;2023-08-06T13:36:25;15.10;99.90
10472;DHT22;5283;48.876;8.962;2023-08-06T13:38:53;15.30;99.90
10472;DHT22;5283;48.876;8.962;2023-08-06T13:41:19;15.60;99.90
10472;DHT22;5283;48.876;8.962;2023-08-06T13:43:46;15.60;99.90
10472;DHT22;5283;48.876;8.962;2023-08-06T13:46:13;15.60;99.90
10472;DHT22;5283;48.876;8.962;2023-08-06T13:48:43;15.70;99.90
10472;DHT22;5283;48.876;8.962;2023-08-06T13:51:11;16.00;99.90
10472;DHT22;5283;48.876;8.962;2023-08-06T13:53:39;16.10;99.90
10472;DHT22;5283;48.876;8.962;2023-08-06T13:56:06;16.10;99.90
10472;DHT22;5283;48.876;8.962;2023-08-06T13:58:33;15.50;99.90
10472;DHT22;5283;48.876;8.962;2023-08-06T14:01:00;15.00;99.90
10472;DHT22;5283;48.876;8.962;2023-08-06T14:03:27;14.80;99.90
10472;DHT22;5283;48.876;8.962;2023-08-06T14:05:54;14.80;99.90
10472;DHT22;5283;48.876;8.962;2023-08-06T14:08:23;15.00;99.90
10472;DHT22;5283;48.876;8.962;2023-08-06T14:10:54;15.50;99.90
10472;DHT22;5283;48.876;8.962;2023-08-06T14:13:23;16.00;99.90
10472;DHT22;5283;48.876;8.962;2023-08-06T14:15:50;16.30;99.90
10472;DHT22;5283;48.876;8.962;2023-08-06T14:18:17;17.10;99.90
10472;DHT22;5283;48.876;8.962;2023-08-06T14:20:44;16.90;99.90
10472;DHT22;5283;48.876;8.962;2023-08-06T14:23:11;16.80;99.90
10472;DHT22;5283;48.876;8.962;2023-08-06T14:25:38;17.10;99.90
10472;DHT22;5283;48.876;8.962;2023-08-06T14:28:06;17.00;99.90
10472;DHT22;5283;48.876;8.962;2023-08-06T14:30:33;16.70;99.90
10472;DHT22;5283;48.876;8.962;2023-08-06T14:33:00;16.50;99.90
10472;DHT22;5283;48.876;8.962;2023-08-06T14:35:34;16.30;99.90
10472;DHT22;5283;48.876;8.962;2023-08-06T14:38:01;16.20;99.90
10472;DHT22;5283;48.876;8.962;2023-08-06T14:40:29;16.30;99.90
10472;DHT22;5283;48.876;8.962;2023-08-06T14:43:00;16.50;99.90
10472;DHT22;5283;48.876;8.962;2023-08-06T14:45:29;16.70;99.90
10472;DHT22;5283;48.876;8.962;2023-08-06T14:47:55;16.60;99.90
10472;DHT22;5283;48.876;8.962;2023-08-06T14:50:23;16.50;99.90
10472;DHT22;5283;48.876;8.962;2023-08-06T14:52:49;16.40;99.90
10472;DHT22;5283;48.876;8.962;2023-08-06T14:55:26;16.40;99.90
10472;DHT22;5283;48.876;8.962;2023-08-06T14:57:53;16.30;99.90
10472;DHT22;5283;48.876;8.962;2023-08-06T15:00:20;16.10;99.90
10472;DHT22;5283;48.876;8.962;2023-08-06T15:02:47;15.70;99.90
10472;DHT22;5283;48.876;8.962;2023-08-06T15:05:14;15.60;99.90
10472;DHT22;5283;48.876;8.962;2023-08-06T15:07:40;15.60;99.90
10472;DHT22;5283;48.876;8.962;2023-08-06T15:10:07;15.80;99.90
10472;DHT22;5283;48.876;8.962;2023-08-06T15:12:45;16.10;99.90
10472;DHT22;5283;48.876;8.962;2023-08-06T15:15:12;16.20;99.90
10472;DHT22;5283;48.876;8.962;2023-08-06T15:17:39;16.30;99.90
10472;DHT22;5283;48.876;8.962;2023-08-06T15:20:06;16.40;99.90
10472;DHT22;5283;48.876;8.962;2023-08-06T15:22:33;16.40;99.90
10472;DHT22;5283;48.876;8.962;2023-08-06T15:25:00;16.20;99.90
10472;DHT22;5283;48.876;8.962;2023-08-06T15:27:27;16.10;99.90
10472;DHT22;5283;48.876;8.962;2023-08-06T15:29:54;16.00;99.90
10472;DHT22;5283;48.876;8.962;2023-08-06T15:32:21;16.30;99.90
10472;DHT22;5283;48.876;8.962;2023-08-06T15:34:49;16.50;99.90
10472;DHT22;5283;48.876;8.962;2023-08-06T15:37:16;16.70;99.90
10472;DHT22;5283;48.876;8.962;2023-08-06T15:39:43;16.70;99.90
10472;DHT22;5283;48.876;8.962;2023-08-06T15:42:09;17.00;99.90
10472;DHT22;5283;48.876;8.962;2023-08-06T15:44:36;17.60;99.90
10472;DHT22;5283;48.876;8.962;2023-08-06T15:47:03;17.40;99.90
10472;DHT22;5283;48.876;8.962;2023-08-06T15:49:29;17.20;99.90
10472;DHT22;5283;48.876;8.962;2023-08-06T15:51:56;17.30;99.90
10472;DHT22;5283;48.876;8.962;2023-08-06T15:54:23;16.90;99.90